Big Torch Key, Florida
Current Conditions -  °F | °C
As of 8:53 AM on Tuesday 27 Jan 2015 (Local Time) from KNQX Reporting Station
Scattered Clouds Scattered Clouds  
Wind Chill: 20°   Ceiling: Unl
Heat Index: 20°   Visibility: 10mi
Dew Point: 11°   Wind: 15mph
Humidity: 56%   Direction: 320°NW
Pressure: 30.07"   Gusts: NA
Location:  24.6465°N, 81.5399°W
Report Text: KNQX 271353Z 32013KT 10SM SCT040 20/11 A3007 RMK AO2 SLP181 T02000111 $
Loading
Personal Weather Stations






























Interactive Weather Map New forecast layout! Learn more

10-Day Weather Forecast

Advertisements
Track Severe Weather on mobile